sensor_id;sensor_type;location;lat;lon;timestamp;temperature;humidity
54558;DHT22;40452;50.080;20.040;2022-09-17T04:52:33;17.80;59.70
54558;DHT22;40452;50.080;20.040;2022-09-17T04:54:58;18.60;60.00
54558;DHT22;40452;50.080;20.040;2022-09-17T04:57:24;18.70;59.60
54558;DHT22;40452;50.080;20.040;2022-09-17T04:59:50;18.70;59.50
54558;DHT22;40452;50.080;20.040;2022-09-17T05:02:16;18.70;59.50
54558;DHT22;40452;50.080;20.040;2022-09-17T05:04:42;18.70;59.80
54558;DHT22;40452;50.080;20.040;2022-09-17T05:07:07;18.70;59.80
54558;DHT22;40452;50.080;20.040;2022-09-17T05:09:33;18.70;59.80
54558;DHT22;40452;50.080;20.040;2022-09-17T05:11:58;18.80;59.90
54558;DHT22;40452;50.080;20.040;2022-09-17T05:14:24;18.80;60.00
54558;DHT22;40452;50.080;20.040;2022-09-17T05:16:50;18.80;60.00
54558;DHT22;40452;50.080;20.040;2022-09-17T05:19:15;18.80;60.10
54558;DHT22;40452;50.080;20.040;2022-09-17T05:21:40;18.80;60.20
54558;DHT22;40452;50.080;20.040;2022-09-17T05:24:06;18.80;60.20
54558;DHT22;40452;50.080;20.040;2022-09-17T05:26:31;18.80;60.50
54558;DHT22;40452;50.080;20.040;2022-09-17T05:28:57;18.90;60.60
54558;DHT22;40452;50.080;20.040;2022-09-17T05:31:22;18.90;60.60
54558;DHT22;40452;50.080;20.040;2022-09-17T05:33:48;18.90;60.50
54558;DHT22;40452;50.080;20.040;2022-09-17T05:36:14;18.90;60.60
54558;DHT22;40452;50.080;20.040;2022-09-17T05:38:39;18.90;60.60
54558;DHT22;40452;50.080;20.040;2022-09-17T05:41:05;19.00;60.80
54558;DHT22;40452;50.080;20.040;2022-09-17T05:43:31;19.00;60.90
54558;DHT22;40452;50.080;20.040;2022-09-17T05:46:04;19.00;60.90
54558;DHT22;40452;50.080;20.040;2022-09-17T05:48:30;19.00;60.90
54558;DHT22;40452;50.080;20.040;2022-09-17T05:50:55;19.00;60.90
54558;DHT22;40452;50.080;20.040;2022-09-17T05:53:21;19.00;60.90
54558;DHT22;40452;50.080;20.040;2022-09-17T05:55:47;19.10;60.90
54558;DHT22;40452;50.080;20.040;2022-09-17T05:58:14;19.10;60.90
54558;DHT22;40452;50.080;20.040;2022-09-17T06:00:42;19.10;60.90
54558;DHT22;40452;50.080;20.040;2022-09-17T06:03:09;19.10;61.00
54558;DHT22;40452;50.080;20.040;2022-09-17T06:05:35;19.10;60.80
54558;DHT22;40452;50.080;20.040;2022-09-17T06:08:01;19.10;60.80
54558;DHT22;40452;50.080;20.040;2022-09-17T06:10:26;19.10;60.70
54558;DHT22;40452;50.080;20.040;2022-09-17T06:12:56;19.20;60.70
54558;DHT22;40452;50.080;20.040;2022-09-17T06:15:22;19.20;60.70
54558;DHT22;40452;50.080;20.040;2022-09-17T06:17:47;19.20;60.40
54558;DHT22;40452;50.080;20.040;2022-09-17T06:20:13;19.20;60.10
54558;DHT22;40452;50.080;20.040;2022-09-17T06:22:40;19.20;60.40
54558;DHT22;40452;50.080;20.040;2022-09-17T06:25:05;19.20;60.30
54558;DHT22;40452;50.080;20.040;2022-09-17T06:27:32;19.20;60.20
54558;DHT22;40452;50.080;20.040;2022-09-17T06:29:58;19.20;60.20
54558;DHT22;40452;50.080;20.040;2022-09-17T06:32:24;19.20;60.00
54558;DHT22;40452;50.080;20.040;2022-09-17T06:34:50;19.20;60.00
54558;DHT22;40452;50.080;20.040;2022-09-17T06:37:15;19.20;60.10
54558;DHT22;40452;50.080;20.040;2022-09-17T06:39:41;19.20;60.20
54558;DHT22;40452;50.080;20.040;2022-09-17T06:42:06;19.30;60.20
54558;DHT22;40452;50.080;20.040;2022-09-17T06:44:32;19.30;60.30
54558;DHT22;40452;50.080;20.040;2022-09-17T06:46:57;19.30;60.20
54558;DHT22;40452;50.080;20.040;2022-09-17T06:49:23;19.30;60.10
54558;DHT22;40452;50.080;20.040;2022-09-17T06:51:49;19.30;60.10
54558;DHT22;40452;50.080;20.040;2022-09-17T06:54:14;19.30;60.10
54558;DHT22;40452;50.080;20.040;2022-09-17T06:56:40;19.30;60.00
54558;DHT22;40452;50.080;20.040;2022-09-17T06:59:05;19.40;60.00
54558;DHT22;40452;50.080;20.040;2022-09-17T07:01:31;19.30;60.00
54558;DHT22;40452;50.080;20.040;2022-09-17T07:03:57;19.30;60.00
54558;DHT22;40452;50.080;20.040;2022-09-17T07:06:22;19.40;60.00
54558;DHT22;40452;50.080;20.040;2022-09-17T07:08:48;19.40;60.10
54558;DHT22;40452;50.080;20.040;2022-09-17T07:11:14;19.40;60.10
54558;DHT22;40452;50.080;20.040;2022-09-17T07:13:40;19.40;60.10
54558;DHT22;40452;50.080;20.040;2022-09-17T07:16:06;19.40;60.00
54558;DHT22;40452;50.080;20.040;2022-09-17T07:18:32;19.40;60.00
54558;DHT22;40452;50.080;20.040;2022-09-17T07:20:59;19.40;60.60
54558;DHT22;40452;50.080;20.040;2022-09-17T07:23:28;19.40;60.00
54558;DHT22;40452;50.080;20.040;2022-09-17T07:25:55;19.40;60.00
54558;DHT22;40452;50.080;20.040;2022-09-17T07:28:21;19.40;60.00
54558;DHT22;40452;50.080;20.040;2022-09-17T07:30:48;19.40;60.00
54558;DHT22;40452;50.080;20.040;2022-09-17T07:33:19;19.40;60.00
54558;DHT22;40452;50.080;20.040;2022-09-17T07:35:58;19.40;59.90
54558;DHT22;40452;50.080;20.040;2022-09-17T07:38:24;19.40;59.90
54558;DHT22;40452;50.080;20.040;2022-09-17T07:40:58;19.40;59.90
54558;DHT22;40452;50.080;20.040;2022-09-17T07:43:25;19.40;59.80
54558;DHT22;40452;50.080;20.040;2022-09-17T07:45:52;19.40;59.90
54558;DHT22;40452;50.080;20.040;2022-09-17T07:48:18;19.40;59.80
54558;DHT22;40452;50.080;20.040;2022-09-17T07:50:44;19.40;60.00
54558;DHT22;40452;50.080;20.040;2022-09-17T07:53:09;19.40;59.80
54558;DHT22;40452;50.080;20.040;2022-09-17T07:55:35;19.40;59.90
54558;DHT22;40452;50.080;20.040;2022-09-17T07:58:01;19.40;59.70
54558;DHT22;40452;50.080;20.040;2022-09-17T08:00:26;19.40;59.70
54558;DHT22;40452;50.080;20.040;2022-09-17T08:02:53;19.40;59.70
54558;DHT22;40452;50.080;20.040;2022-09-17T08:05:19;19.40;59.70
54558;DHT22;40452;50.080;20.040;2022-09-17T08:07:52;19.50;59.80
54558;DHT22;40452;50.080;20.040;2022-09-17T08:10:18;19.50;59.80
54558;DHT22;40452;50.080;20.040;2022-09-17T08:12:47;19.50;59.70
54558;DHT22;40452;50.080;20.040;2022-09-17T08:15:13;19.50;59.70
54558;DHT22;40452;50.080;20.040;2022-09-17T08:17:43;19.50;59.80
54558;DHT22;40452;50.080;20.040;2022-09-17T08:20:08;19.50;59.60
54558;DHT22;40452;50.080;20.040;2022-09-17T08:22:34;19.50;59.70
54558;DHT22;40452;50.080;20.040;2022-09-17T08:24:59;19.50;59.80
54558;DHT22;40452;50.080;20.040;2022-09-17T08:27:25;19.50;59.50
54558;DHT22;40452;50.080;20.040;2022-09-17T08:29:50;19.50;59.40
54558;DHT22;40452;50.080;20.040;2022-09-17T08:32:16;19.50;59.40
54558;DHT22;40452;50.080;20.040;2022-09-17T08:34:42;19.50;59.40
54558;DHT22;40452;50.080;20.040;2022-09-17T08:37:07;19.50;59.60
54558;DHT22;40452;50.080;20.040;2022-09-17T08:39:33;19.50;59.50
54558;DHT22;40452;50.080;20.040;2022-09-17T08:44:45;19.50;59.60
54558;DHT22;40452;50.080;20.040;2022-09-17T08:50:02;19.50;59.60
54558;DHT22;40452;50.080;20.040;2022-09-17T08:55:48;19.50;59.60
54558;DHT22;40452;50.080;20.040;2022-09-17T08:59:03;19.60;59.70
54558;DHT22;40452;50.080;20.040;2022-09-17T09:06:32;19.60;59.80
54558;DHT22;40452;50.080;20.040;2022-09-17T09:09:03;19.60;59.80
54558;DHT22;40452;50.080;20.040;2022-09-17T09:11:30;19.60;59.80
54558;DHT22;40452;50.080;20.040;2022-09-17T09:14:03;19.60;60.00
54558;DHT22;40452;50.080;20.040;2022-09-17T09:16:32;19.60;60.60
54558;DHT22;40452;50.080;20.040;2022-09-17T09:19:12;19.70;60.40
54558;DHT22;40452;50.080;20.040;2022-09-17T09:30:21;19.70;62.60
54558;DHT22;40452;50.080;20.040;2022-09-17T09:35:40;19.80;63.40
54558;DHT22;40452;50.080;20.040;2022-09-17T09:44:11;19.80;64.00
54558;DHT22;40452;50.080;20.040;2022-09-17T09:47:08;19.80;64.10
54558;DHT22;40452;50.080;20.040;2022-09-17T09:50:02;19.80;64.40
54558;DHT22;40452;50.080;20.040;2022-09-17T09:53:48;19.80;64.80
54558;DHT22;40452;50.080;20.040;2022-09-17T09:58:35;19.90;64.80
54558;DHT22;40452;50.080;20.040;2022-09-17T10:01:10;19.90;65.10
54558;DHT22;40452;50.080;20.040;2022-09-17T10:03:40;19.90;64.80
54558;DHT22;40452;50.080;20.040;2022-09-17T10:06:09;19.90;64.70
54558;DHT22;40452;50.080;20.040;2022-09-17T10:08:38;19.90;64.70
54558;DHT22;40452;50.080;20.040;2022-09-17T10:13:34;19.90;65.00
54558;DHT22;40452;50.080;20.040;2022-09-17T10:16:18;19.90;64.90
54558;DHT22;40452;50.080;20.040;2022-09-17T10:18:48;19.90;64.80
54558;DHT22;40452;50.080;20.040;2022-09-17T10:21:20;19.90;64.70
54558;DHT22;40452;50.080;20.040;2022-09-17T10:23:46;19.90;64.80
54558;DHT22;40452;50.080;20.040;2022-09-17T10:26:41;19.90;64.60
54558;DHT22;40452;50.080;20.040;2022-09-17T10:29:15;20.00;64.50
54558;DHT22;40452;50.080;20.040;2022-09-17T10:31:50;19.90;64.60
54558;DHT22;40452;50.080;20.040;2022-09-17T10:34:19;19.90;64.50
54558;DHT22;40452;50.080;20.040;2022-09-17T10:36:47;19.90;64.40
54558;DHT22;40452;50.080;20.040;2022-09-17T10:39:24;19.90;64.20
54558;DHT22;40452;50.080;20.040;2022-09-17T10:41:56;19.90;64.20
54558;DHT22;40452;50.080;20.040;2022-09-17T10:44:26;19.90;64.30
54558;DHT22;40452;50.080;20.040;2022-09-17T10:46:52;19.90;64.30
54558;DHT22;40452;50.080;20.040;2022-09-17T10:52:09;20.00;64.50
54558;DHT22;40452;50.080;20.040;2022-09-17T11:00:20;20.00;64.70
54558;DHT22;40452;50.080;20.040;2022-09-17T11:14:19;20.00;64.80
54558;DHT22;40452;50.080;20.040;2022-09-17T11:24:46;20.00;64.60
54558;DHT22;40452;50.080;20.040;2022-09-17T11:27:29;20.00;64.70
54558;DHT22;40452;50.080;20.040;2022-09-17T11:30:13;20.00;64.90
54558;DHT22;40452;50.080;20.040;2022-09-17T11:35:25;20.00;64.90
54558;DHT22;40452;50.080;20.040;2022-09-17T11:40:41;20.00;64.50
54558;DHT22;40452;50.080;20.040;2022-09-17T11:43:19;20.00;64.30
54558;DHT22;40452;50.080;20.040;2022-09-17T11:46:05;20.00;65.00
54558;DHT22;40452;50.080;20.040;2022-09-17T11:48:41;19.90;64.70
54558;DHT22;40452;50.080;20.040;2022-09-17T11:51:35;19.90;64.80
54558;DHT22;40452;50.080;20.040;2022-09-17T11:54:19;19.90;64.90
54558;DHT22;40452;50.080;20.040;2022-09-17T11:56:52;19.90;64.90
54558;DHT22;40452;50.080;20.040;2022-09-17T11:59:19;20.00;65.20
54558;DHT22;40452;50.080;20.040;2022-09-17T12:01:57;19.90;65.10
54558;DHT22;40452;50.080;20.040;2022-09-17T12:04:46;19.90;65.00
54558;DHT22;40452;50.080;20.040;2022-09-17T12:07:26;20.00;65.70
54558;DHT22;40452;50.080;20.040;2022-09-17T12:13:10;20.00;65.60
54558;DHT22;40452;50.080;20.040;2022-09-17T12:15:41;20.00;66.00
54558;DHT22;40452;50.080;20.040;2022-09-17T12:18:26;20.00;66.30
54558;DHT22;40452;50.080;20.040;2022-09-17T12:20:55;20.00;66.00
54558;DHT22;40452;50.080;20.040;2022-09-17T12:23:38;20.00;66.20
54558;DHT22;40452;50.080;20.040;2022-09-17T12:28:52;20.00;66.10
54558;DHT22;40452;50.080;20.040;2022-09-17T12:31:32;20.00;66.40
54558;DHT22;40452;50.080;20.040;2022-09-17T12:34:25;20.00;66.40
54558;DHT22;40452;50.080;20.040;2022-09-17T12:40:25;20.00;66.20
54558;DHT22;40452;50.080;20.040;2022-09-17T12:46:18;20.00;66.20
54558;DHT22;40452;50.080;20.040;2022-09-17T12:49:27;20.00;66.10
54558;DHT22;40452;50.080;20.040;2022-09-17T13:01:05;19.90;65.40
54558;DHT22;40452;50.080;20.040;2022-09-17T13:03:41;20.00;65.40
54558;DHT22;40452;50.080;20.040;2022-09-17T13:09:32;20.00;65.10
54558;DHT22;40452;50.080;20.040;2022-09-17T13:12:26;20.00;65.40
54558;DHT22;40452;50.080;20.040;2022-09-17T13:20:56;19.90;65.10
54558;DHT22;40452;50.080;20.040;2022-09-17T13:23:29;20.00;64.80
54558;DHT22;40452;50.080;20.040;2022-09-17T13:25:56;19.90;64.30
54558;DHT22;40452;50.080;20.040;2022-09-17T13:28:42;20.00;64.00
54558;DHT22;40452;50.080;20.040;2022-09-17T13:31:08;19.90;64.50
54558;DHT22;40452;50.080;20.040;2022-09-17T13:33:55;19.90;64.50
54558;DHT22;40452;50.080;20.040;2022-09-17T13:36:49;19.90;64.60
54558;DHT22;40452;50.080;20.040;2022-09-17T13:39:51;19.90;64.30
54558;DHT22;40452;50.080;20.040;2022-09-17T13:42:18;19.90;63.90
54558;DHT22;40452;50.080;20.040;2022-09-17T13:45:04;20.00;63.80
54558;DHT22;40452;50.080;20.040;2022-09-17T13:47:33;20.00;64.00
54558;DHT22;40452;50.080;20.040;2022-09-17T13:50:03;19.90;64.00
54558;DHT22;40452;50.080;20.040;2022-09-17T13:55:05;20.00;64.20
54558;DHT22;40452;50.080;20.040;2022-09-17T13:57:32;20.00;64.00
54558;DHT22;40452;50.080;20.040;2022-09-17T13:59:59;20.00;63.80
54558;DHT22;40452;50.080;20.040;2022-09-17T14:02:28;19.90;63.70
54558;DHT22;40452;50.080;20.040;2022-09-17T14:04:55;20.00;64.50
54558;DHT22;40452;50.080;20.040;2022-09-17T14:07:46;19.90;63.70
54558;DHT22;40452;50.080;20.040;2022-09-17T14:18:32;20.00;63.60
54558;DHT22;40452;50.080;20.040;2022-09-17T14:21:26;20.00;63.70
54558;DHT22;40452;50.080;20.040;2022-09-17T14:23:57;20.00;63.80
54558;DHT22;40452;50.080;20.040;2022-09-17T14:35:49;20.00;63.30
54558;DHT22;40452;50.080;20.040;2022-09-17T14:38:24;20.00;63.20
54558;DHT22;40452;50.080;20.040;2022-09-17T14:41:14;20.00;63.30
54558;DHT22;40452;50.080;20.040;2022-09-17T14:46:28;20.00;63.20
54558;DHT22;40452;50.080;20.040;2022-09-17T14:49:11;20.00;63.20
54558;DHT22;40452;50.080;20.040;2022-09-17T14:51:40;20.00;63.00
54558;DHT22;40452;50.080;20.040;2022-09-17T14:54:29;20.00;63.10
54558;DHT22;40452;50.080;20.040;2022-09-17T14:57:09;20.00;63.10
54558;DHT22;40452;50.080;20.040;2022-09-17T14:59:50;20.00;63.00
54558;DHT22;40452;50.080;20.040;2022-09-17T15:02:42;20.00;62.90
54558;DHT22;40452;50.080;20.040;2022-09-17T15:07:47;20.00;62.70
54558;DHT22;40452;50.080;20.040;2022-09-17T15:10:15;20.00;63.50
54558;DHT22;40452;50.080;20.040;2022-09-17T15:12:43;20.00;62.80
54558;DHT22;40452;50.080;20.040;2022-09-17T15:15:19;20.00;62.60
54558;DHT22;40452;50.080;20.040;2022-09-17T15:17:45;20.00;62.60
54558;DHT22;40452;50.080;20.040;2022-09-17T15:20:19;20.00;62.60
54558;DHT22;40452;50.080;20.040;2022-09-17T15:22:50;20.10;62.70
54558;DHT22;40452;50.080;20.040;2022-09-17T15:25:21;20.00;62.60
54558;DHT22;40452;50.080;20.040;2022-09-17T15:27:51;20.00;62.60
54558;DHT22;40452;50.080;20.040;2022-09-17T15:30:22;20.00;62.60
54558;DHT22;40452;50.080;20.040;2022-09-17T15:32:56;20.00;62.50
54558;DHT22;40452;50.080;20.040;2022-09-17T15:35:30;20.00;62.50
54558;DHT22;40452;50.080;20.040;2022-09-17T15:38:01;20.00;62.40
54558;DHT22;40452;50.080;20.040;2022-09-17T15:40:39;20.00;62.50
54558;DHT22;40452;50.080;20.040;2022-09-17T15:43:31;20.00;62.50
54558;DHT22;40452;50.080;20.040;2022-09-17T15:46:22;20.00;62.50
54558;DHT22;40452;50.080;20.040;2022-09-17T15:48:48;20.00;62.50
54558;DHT22;40452;50.080;20.040;2022-09-17T15:51:28;20.00;62.50
54558;DHT22;40452;50.080;20.040;2022-09-17T15:54:00;20.00;62.50
54558;DHT22;40452;50.080;20.040;2022-09-17T15:56:28;20.00;62.40
54558;DHT22;40452;50.080;20.040;2022-09-17T15:59:02;20.00;62.50
54558;DHT22;40452;50.080;20.040;2022-09-17T16:08:55;20.00;62.40
54558;DHT22;40452;50.080;20.040;2022-09-17T16:11:24;20.00;62.30
54558;DHT22;40452;50.080;20.040;2022-09-17T16:13:52;20.00;62.20
54558;DHT22;40452;50.080;20.040;2022-09-17T16:16:38;20.00;62.30
54558;DHT22;40452;50.080;20.040;2022-09-17T16:19:04;20.00;62.30
54558;DHT22;40452;50.080;20.040;2022-09-17T16:21:30;20.00;62.30
54558;DHT22;40452;50.080;20.040;2022-09-17T16:23:56;20.00;62.30
54558;DHT22;40452;50.080;20.040;2022-09-17T16:26:27;20.00;62.30
54558;DHT22;40452;50.080;20.040;2022-09-17T16:28:57;20.00;62.10
54558;DHT22;40452;50.080;20.040;2022-09-17T16:31:24;20.00;62.30
54558;DHT22;40452;50.080;20.040;2022-09-17T16:33:50;20.00;61.50
54558;DHT22;40452;50.080;20.040;2022-09-17T16:36:16;19.90;60.40
54558;DHT22;40452;50.080;20.040;2022-09-17T16:38:42;19.90;61.40
54558;DHT22;40452;50.080;20.040;2022-09-17T16:41:07;20.00;61.90
54558;DHT22;40452;50.080;20.040;2022-09-17T16:43:33;20.00;61.70
54558;DHT22;40452;50.080;20.040;2022-09-17T16:46:00;20.00;61.80
54558;DHT22;40452;50.080;20.040;2022-09-17T16:48:26;20.00;61.70
54558;DHT22;40452;50.080;20.040;2022-09-17T16:50:52;20.00;61.70
54558;DHT22;40452;50.080;20.040;2022-09-17T16:53:17;20.00;61.70
54558;DHT22;40452;50.080;20.040;2022-09-17T16:55:43;20.00;61.60
54558;DHT22;40452;50.080;20.040;2022-09-17T16:58:08;20.00;61.60
54558;DHT22;40452;50.080;20.040;2022-09-17T17:00:34;20.10;61.50
54558;DHT22;40452;50.080;20.040;2022-09-17T17:03:02;20.00;61.90
54558;DHT22;40452;50.080;20.040;2022-09-17T17:05:27;20.00;61.50
54558;DHT22;40452;50.080;20.040;2022-09-17T17:07:53;20.00;61.60
54558;DHT22;40452;50.080;20.040;2022-09-17T17:10:19;20.00;61.70
54558;DHT22;40452;50.080;20.040;2022-09-17T17:12:45;20.00;61.70
54558;DHT22;40452;50.080;20.040;2022-09-17T17:15:11;20.00;61.60
54558;DHT22;40452;50.080;20.040;2022-09-17T17:17:36;20.00;61.60
54558;DHT22;40452;50.080;20.040;2022-09-17T17:20:06;20.00;61.60
54558;DHT22;40452;50.080;20.040;2022-09-17T17:22:38;20.00;61.50
54558;DHT22;40452;50.080;20.040;2022-09-17T17:25:05;20.00;61.50
54558;DHT22;40452;50.080;20.040;2022-09-17T17:27:31;20.00;61.60
54558;DHT22;40452;50.080;20.040;2022-09-17T17:29:57;20.00;61.50
54558;DHT22;40452;50.080;20.040;2022-09-17T17:32:22;20.00;61.60
54558;DHT22;40452;50.080;20.040;2022-09-17T17:34:48;20.00;61.60
54558;DHT22;40452;50.080;20.040;2022-09-17T17:37:15;20.00;61.60
54558;DHT22;40452;50.080;20.040;2022-09-17T17:39:41;20.00;61.60
54558;DHT22;40452;50.080;20.040;2022-09-17T17:42:06;20.00;61.70
54558;DHT22;40452;50.080;20.040;2022-09-17T17:44:32;20.00;61.60
54558;DHT22;40452;50.080;20.040;2022-09-17T17:46:58;20.00;61.50
54558;DHT22;40452;50.080;20.040;2022-09-17T17:49:23;20.00;61.60
54558;DHT22;40452;50.080;20.040;2022-09-17T17:51:49;20.00;61.60
54558;DHT22;40452;50.080;20.040;2022-09-17T17:54:14;20.00;61.50
54558;DHT22;40452;50.080;20.040;2022-09-17T17:56:40;20.00;61.50
54558;DHT22;40452;50.080;20.040;2022-09-17T17:59:05;20.00;61.60
54558;DHT22;40452;50.080;20.040;2022-09-17T18:01:31;20.00;61.60
54558;DHT22;40452;50.080;20.040;2022-09-17T18:04:02;20.00;61.50
54558;DHT22;40452;50.080;20.040;2022-09-17T18:06:28;20.00;61.40
54558;DHT22;40452;50.080;20.040;2022-09-17T18:08:54;20.00;61.30
54558;DHT22;40452;50.080;20.040;2022-09-17T18:11:21;20.00;61.60
54558;DHT22;40452;50.080;20.040;2022-09-17T18:13:50;20.00;61.50
54558;DHT22;40452;50.080;20.040;2022-09-17T18:16:16;20.00;61.60
54558;DHT22;40452;50.080;20.040;2022-09-17T18:18:44;20.00;61.60
54558;DHT22;40452;50.080;20.040;2022-09-17T18:21:12;20.00;61.50
54558;DHT22;40452;50.080;20.040;2022-09-17T18:23:39;20.00;61.40
54558;DHT22;40452;50.080;20.040;2022-09-17T18:26:09;20.00;61.50
54558;DHT22;40452;50.080;20.040;2022-09-17T18:28:35;20.00;61.60
54558;DHT22;40452;50.080;20.040;2022-09-17T18:31:26;20.00;61.80
54558;DHT22;40452;50.080;20.040;2022-09-17T18:34:01;20.00;61.60
54558;DHT22;40452;50.080;20.040;2022-09-17T18:36:29;19.90;61.40
54558;DHT22;40452;50.080;20.040;2022-09-17T18:39:00;20.00;61.60
54558;DHT22;40452;50.080;20.040;2022-09-17T18:41:27;20.00;61.60
54558;DHT22;40452;50.080;20.040;2022-09-17T18:43:53;19.90;61.50
54558;DHT22;40452;50.080;20.040;2022-09-17T18:46:19;20.00;61.50
54558;DHT22;40452;50.080;20.040;2022-09-17T18:48:44;19.90;61.40
54558;DHT22;40452;50.080;20.040;2022-09-17T18:51:12;19.90;61.50
54558;DHT22;40452;50.080;20.040;2022-09-17T18:53:38;20.00;61.50
54558;DHT22;40452;50.080;20.040;2022-09-17T18:56:21;19.90;61.20
54558;DHT22;40452;50.080;20.040;2022-09-17T18:58:48;20.00;61.40
54558;DHT22;40452;50.080;20.040;2022-09-17T19:01:16;19.90;61.50
54558;DHT22;40452;50.080;20.040;2022-09-17T19:03:42;20.00;61.40
54558;DHT22;40452;50.080;20.040;2022-09-17T19:06:09;19.90;61.30
54558;DHT22;40452;50.080;20.040;2022-09-17T19:08:35;19.90;61.30
54558;DHT22;40452;50.080;20.040;2022-09-17T19:11:01;19.90;61.40
54558;DHT22;40452;50.080;20.040;2022-09-17T19:13:33;19.90;61.40
54558;DHT22;40452;50.080;20.040;2022-09-17T19:15:59;19.90;61.30
54558;DHT22;40452;50.080;20.040;2022-09-17T19:18:25;19.90;61.30
54558;DHT22;40452;50.080;20.040;2022-09-17T19:20:51;19.90;61.40
54558;DHT22;40452;50.080;20.040;2022-09-17T19:23:16;20.00;61.40
54558;DHT22;40452;50.080;20.040;2022-09-17T19:25:42;20.00;61.40
54558;DHT22;40452;50.080;20.040;2022-09-17T19:28:08;20.00;61.30
54558;DHT22;40452;50.080;20.040;2022-09-17T19:30:33;20.00;61.20
54558;DHT22;40452;50.080;20.040;2022-09-17T19:32:59;20.00;61.30
54558;DHT22;40452;50.080;20.040;2022-09-17T19:35:25;20.00;61.20
54558;DHT22;40452;50.080;20.040;2022-09-17T19:37:51;19.90;60.90
54558;DHT22;40452;50.080;20.040;2022-09-17T19:40:18;19.90;60.90
54558;DHT22;40452;50.080;20.040;2022-09-17T19:42:49;19.90;60.80
54558;DHT22;40452;50.080;20.040;2022-09-17T19:45:15;19.90;60.80
54558;DHT22;40452;50.080;20.040;2022-09-17T19:47:41;19.90;60.70
54558;DHT22;40452;50.080;20.040;2022-09-17T19:50:06;19.90;60.80
54558;DHT22;40452;50.080;20.040;2022-09-17T19:52:32;19.90;60.70
54558;DHT22;40452;50.080;20.040;2022-09-17T19:54:57;19.90;60.60
54558;DHT22;40452;50.080;20.040;2022-09-17T19:57:23;19.90;60.70
54558;DHT22;40452;50.080;20.040;2022-09-17T19:59:48;19.90;61.00
54558;DHT22;40452;50.080;20.040;2022-09-17T20:02:14;19.90;61.20
54558;DHT22;40452;50.080;20.040;2022-09-17T20:04:39;19.90;61.30
54558;DHT22;40452;50.080;20.040;2022-09-17T20:07:05;19.90;61.30
54558;DHT22;40452;50.080;20.040;2022-09-17T20:09:30;19.90;61.80
54558;DHT22;40452;50.080;20.040;2022-09-17T20:11:57;19.90;61.00
54558;DHT22;40452;50.080;20.040;2022-09-17T20:14:25;19.90;60.90
54558;DHT22;40452;50.080;20.040;2022-09-17T20:16:51;19.90;60.90
54558;DHT22;40452;50.080;20.040;2022-09-17T20:19:16;19.90;60.70
54558;DHT22;40452;50.080;20.040;2022-09-17T20:21:42;19.90;61.00
54558;DHT22;40452;50.080;20.040;2022-09-17T20:24:07;19.90;60.80
54558;DHT22;40452;50.080;20.040;2022-09-17T20:26:33;19.90;60.70
54558;DHT22;40452;50.080;20.040;2022-09-17T20:28:59;19.90;60.20
54558;DHT22;40452;50.080;20.040;2022-09-17T20:31:27;19.90;60.50
54558;DHT22;40452;50.080;20.040;2022-09-17T20:33:54;19.90;60.30
54558;DHT22;40452;50.080;20.040;2022-09-17T20:36:23;19.90;60.20
54558;DHT22;40452;50.080;20.040;2022-09-17T20:38:49;19.90;60.20
54558;DHT22;40452;50.080;20.040;2022-09-17T20:41:16;19.90;60.20
54558;DHT22;40452;50.080;20.040;2022-09-17T20:43:45;19.80;60.10
54558;DHT22;40452;50.080;20.040;2022-09-17T20:46:11;19.80;60.10
54558;DHT22;40452;50.080;20.040;2022-09-17T20:48:38;19.80;60.10
54558;DHT22;40452;50.080;20.040;2022-09-17T20:51:12;19.90;60.80
54558;DHT22;40452;50.080;20.040;2022-09-17T20:53:39;19.80;60.00
54558;DHT22;40452;50.080;20.040;2022-09-17T20:56:12;19.80;59.90
54558;DHT22;40452;50.080;20.040;2022-09-17T20:58:40;19.90;60.00
54558;DHT22;40452;50.080;20.040;2022-09-17T21:01:17;19.80;60.00
54558;DHT22;40452;50.080;20.040;2022-09-17T21:03:46;19.80;60.00
54558;DHT22;40452;50.080;20.040;2022-09-17T21:06:18;19.80;60.00
54558;DHT22;40452;50.080;20.040;2022-09-17T21:08:45;19.80;60.10
54558;DHT22;40452;50.080;20.040;2022-09-17T21:11:11;19.80;59.90
54558;DHT22;40452;50.080;20.040;2022-09-17T21:13:37;19.80;59.90
54558;DHT22;40452;50.080;20.040;2022-09-17T21:16:03;19.80;60.00
54558;DHT22;40452;50.080;20.040;2022-09-17T21:18:29;19.80;59.90
54558;DHT22;40452;50.080;20.040;2022-09-17T21:20:55;19.80;58.60
54558;DHT22;40452;50.080;20.040;2022-09-17T21:23:25;19.60;57.00
54558;DHT22;40452;50.080;20.040;2022-09-17T21:25:50;19.50;57.50
54558;DHT22;40452;50.080;20.040;2022-09-17T21:28:16;19.40;57.10
54558;DHT22;40452;50.080;20.040;2022-09-17T21:30:46;19.30;57.00
54558;DHT22;40452;50.080;20.040;2022-09-17T21:33:12;19.20;56.90
54558;DHT22;40452;50.080;20.040;2022-09-17T21:35:39;19.20;56.90
54558;DHT22;40452;50.080;20.040;2022-09-17T21:38:04;19.10;56.90
54558;DHT22;40452;50.080;20.040;2022-09-17T21:40:30;19.10;56.80
54558;DHT22;40452;50.080;20.040;2022-09-17T21:42:55;19.10;56.70
54558;DHT22;40452;50.080;20.040;2022-09-17T21:45:21;19.10;57.00
54558;DHT22;40452;50.080;20.040;2022-09-17T21:47:46;19.00;57.10
54558;DHT22;40452;50.080;20.040;2022-09-17T21:50:12;19.00;56.80
54558;DHT22;40452;50.080;20.040;2022-09-17T21:52:37;19.00;56.60
54558;DHT22;40452;50.080;20.040;2022-09-17T21:55:03;18.90;56.70
54558;DHT22;40452;50.080;20.040;2022-09-17T21:57:29;18.90;56.70
54558;DHT22;40452;50.080;20.040;2022-09-17T21:59:54;18.80;56.50
54558;DHT22;40452;50.080;20.040;2022-09-17T22:02:20;18.90;56.90
54558;DHT22;40452;50.080;20.040;2022-09-17T22:04:45;18.80;56.90
54558;DHT22;40452;50.080;20.040;2022-09-17T22:07:11;18.80;56.70
54558;DHT22;40452;50.080;20.040;2022-09-17T22:09:36;18.80;56.70
54558;DHT22;40452;50.080;20.040;2022-09-17T22:12:02;18.80;56.90
54558;DHT22;40452;50.080;20.040;2022-09-17T22:14:30;18.80;56.90
54558;DHT22;40452;50.080;20.040;2022-09-17T22:16:56;18.70;57.10
54558;DHT22;40452;50.080;20.040;2022-09-17T22:19:23;18.70;56.70
54558;DHT22;40452;50.080;20.040;2022-09-17T22:21:51;18.70;56.70
54558;DHT22;40452;50.080;20.040;2022-09-17T22:24:18;18.60;56.80
54558;DHT22;40452;50.080;20.040;2022-09-17T22:26:47;18.60;56.80
54558;DHT22;40452;50.080;20.040;2022-09-17T22:29:15;18.60;56.80
54558;DHT22;40452;50.080;20.040;2022-09-17T22:31:41;18.60;56.60
54558;DHT22;40452;50.080;20.040;2022-09-17T22:34:08;18.60;56.70
54558;DHT22;40452;50.080;20.040;2022-09-17T22:36:35;18.60;56.60